sensor_id;sensor_type;location;lat;lon;timestamp;temperature;humidity
77039;DHT22;65970;50.476;4.840;2022-12-29T00:02:58;11.00;99.90
77039;DHT22;65970;50.476;4.840;2022-12-29T00:07:58;11.00;99.90
77039;DHT22;65970;50.476;4.840;2022-12-29T00:12:59;11.00;99.90
77039;DHT22;65970;50.476;4.840;2022-12-29T00:18:00;11.00;99.90
77039;DHT22;65970;50.476;4.840;2022-12-29T00:23:00;11.00;99.90
77039;DHT22;65970;50.476;4.840;2022-12-29T00:28:01;11.00;99.90
77039;DHT22;65970;50.476;4.840;2022-12-29T00:33:28;11.00;99.90
77039;DHT22;65970;50.476;4.840;2022-12-29T00:38:29;11.00;99.90
77039;DHT22;65970;50.476;4.840;2022-12-29T00:43:31;11.00;99.90
77039;DHT22;65970;50.476;4.840;2022-12-29T00:48:32;11.00;99.90
77039;DHT22;65970;50.476;4.840;2022-12-29T00:53:33;11.00;99.90
77039;DHT22;65970;50.476;4.840;2022-12-29T00:58:33;11.00;99.90
77039;DHT22;65970;50.476;4.840;2022-12-29T01:03:36;11.00;99.90
77039;DHT22;65970;50.476;4.840;2022-12-29T01:08:37;11.00;99.90
77039;DHT22;65970;50.476;4.840;2022-12-29T01:13:38;11.00;99.90
77039;DHT22;65970;50.476;4.840;2022-12-29T01:18:39;11.00;99.90
77039;DHT22;65970;50.476;4.840;2022-12-29T01:23:40;11.00;99.90
77039;DHT22;65970;50.476;4.840;2022-12-29T01:28:40;11.00;99.90
77039;DHT22;65970;50.476;4.840;2022-12-29T01:33:42;11.00;99.90
77039;DHT22;65970;50.476;4.840;2022-12-29T01:38:43;11.00;99.90
77039;DHT22;65970;50.476;4.840;2022-12-29T01:48:46;10.90;99.90
77039;DHT22;65970;50.476;4.840;2022-12-29T01:53:47;10.90;99.90
77039;DHT22;65970;50.476;4.840;2022-12-29T01:58:55;10.80;99.90
77039;DHT22;65970;50.476;4.840;2022-12-29T02:03:56;10.80;99.90
77039;DHT22;65970;50.476;4.840;2022-12-29T02:08:58;10.80;99.90
77039;DHT22;65970;50.476;4.840;2022-12-29T02:13:59;10.70;99.90
77039;DHT22;65970;50.476;4.840;2022-12-29T02:24:27;10.70;99.90
77039;DHT22;65970;50.476;4.840;2022-12-29T02:29:42;10.70;99.90
77039;DHT22;65970;50.476;4.840;2022-12-29T02:35:20;10.80;99.90
77039;DHT22;65970;50.476;4.840;2022-12-29T02:40:53;10.80;99.90
77039;DHT22;65970;50.476;4.840;2022-12-29T02:46:04;10.80;99.90
77039;DHT22;65970;50.476;4.840;2022-12-29T02:51:13;10.90;99.90
77039;DHT22;65970;50.476;4.840;2022-12-29T02:56:15;10.90;99.90
77039;DHT22;65970;50.476;4.840;2022-12-29T03:01:29;10.90;99.90
77039;DHT22;65970;50.476;4.840;2022-12-29T03:17:26;11.00;99.90
77039;DHT22;65970;50.476;4.840;2022-12-29T03:22:30;11.00;99.90
77039;DHT22;65970;50.476;4.840;2022-12-29T03:27:36;11.00;99.90
77039;DHT22;65970;50.476;4.840;2022-12-29T03:32:43;11.10;99.90
77039;DHT22;65970;50.476;4.840;2022-12-29T03:38:09;11.10;99.90
77039;DHT22;65970;50.476;4.840;2022-12-29T03:43:12;11.10;99.90
77039;DHT22;65970;50.476;4.840;2022-12-29T03:48:13;11.10;99.90
77039;DHT22;65970;50.476;4.840;2022-12-29T03:53:13;11.10;99.90
77039;DHT22;65970;50.476;4.840;2022-12-29T03:58:14;11.20;99.90
77039;DHT22;65970;50.476;4.840;2022-12-29T04:03:14;11.20;99.90
77039;DHT22;65970;50.476;4.840;2022-12-29T04:08:15;11.20;99.90
77039;DHT22;65970;50.476;4.840;2022-12-29T04:13:16;11.20;99.90
77039;DHT22;65970;50.476;4.840;2022-12-29T04:18:16;11.20;99.90
77039;DHT22;65970;50.476;4.840;2022-12-29T04:23:17;11.20;99.90
77039;DHT22;65970;50.476;4.840;2022-12-29T04:28:18;11.10;99.90
77039;DHT22;65970;50.476;4.840;2022-12-29T04:33:19;11.10;99.90
77039;DHT22;65970;50.476;4.840;2022-12-29T04:38:21;11.10;99.90
77039;DHT22;65970;50.476;4.840;2022-12-29T04:43:21;11.10;99.90
77039;DHT22;65970;50.476;4.840;2022-12-29T04:48:22;11.10;99.90
77039;DHT22;65970;50.476;4.840;2022-12-29T04:53:23;11.00;99.90
77039;DHT22;65970;50.476;4.840;2022-12-29T04:58:23;11.00;99.90
77039;DHT22;65970;50.476;4.840;2022-12-29T05:03:24;11.00;99.90
77039;DHT22;65970;50.476;4.840;2022-12-29T05:08:25;11.00;99.90
77039;DHT22;65970;50.476;4.840;2022-12-29T05:13:25;10.90;99.90
77039;DHT22;65970;50.476;4.840;2022-12-29T05:18:26;10.90;99.90
77039;DHT22;65970;50.476;4.840;2022-12-29T05:23:26;10.90;99.90
77039;DHT22;65970;50.476;4.840;2022-12-29T05:28:27;10.90;99.90
77039;DHT22;65970;50.476;4.840;2022-12-29T05:33:27;10.80;99.90
77039;DHT22;65970;50.476;4.840;2022-12-29T05:38:28;10.80;99.90
77039;DHT22;65970;50.476;4.840;2022-12-29T05:43:28;10.80;99.90
77039;DHT22;65970;50.476;4.840;2022-12-29T05:48:29;10.80;99.90
77039;DHT22;65970;50.476;4.840;2022-12-29T05:53:30;10.70;99.90
77039;DHT22;65970;50.476;4.840;2022-12-29T05:58:30;10.70;99.90
77039;DHT22;65970;50.476;4.840;2022-12-29T06:03:31;10.70;99.90
77039;DHT22;65970;50.476;4.840;2022-12-29T06:08:31;10.70;99.90
77039;DHT22;65970;50.476;4.840;2022-12-29T06:13:32;10.70;99.90
77039;DHT22;65970;50.476;4.840;2022-12-29T06:29:02;10.60;99.90
77039;DHT22;65970;50.476;4.840;2022-12-29T06:34:03;10.60;99.90
77039;DHT22;65970;50.476;4.840;2022-12-29T06:44:14;10.60;99.90
77039;DHT22;65970;50.476;4.840;2022-12-29T06:49:16;10.70;99.90
77039;DHT22;65970;50.476;4.840;2022-12-29T06:54:16;10.60;99.90
77039;DHT22;65970;50.476;4.840;2022-12-29T06:59:17;10.60;99.90
77039;DHT22;65970;50.476;4.840;2022-12-29T07:04:18;10.70;99.90
77039;DHT22;65970;50.476;4.840;2022-12-29T07:09:19;10.70;99.90
77039;DHT22;65970;50.476;4.840;2022-12-29T07:14:19;10.70;99.90
77039;DHT22;65970;50.476;4.840;2022-12-29T07:50:22;10.30;99.90
77039;DHT22;65970;50.476;4.840;2022-12-29T07:55:23;10.20;99.90
77039;DHT22;65970;50.476;4.840;2022-12-29T08:00:23;10.20;99.90
77039;DHT22;65970;50.476;4.840;2022-12-29T08:05:24;10.20;99.90
77039;DHT22;65970;50.476;4.840;2022-12-29T08:10:25;10.10;99.90
77039;DHT22;65970;50.476;4.840;2022-12-29T08:15:25;10.20;99.90
77039;DHT22;65970;50.476;4.840;2022-12-29T08:20:27;10.10;99.90
77039;DHT22;65970;50.476;4.840;2022-12-29T08:25:27;10.10;99.90
77039;DHT22;65970;50.476;4.840;2022-12-29T08:30:28;10.10;99.90
77039;DHT22;65970;50.476;4.840;2022-12-29T08:35:28;10.10;99.90
77039;DHT22;65970;50.476;4.840;2022-12-29T08:40:29;10.10;99.90
77039;DHT22;65970;50.476;4.840;2022-12-29T08:45:29;10.10;99.90
77039;DHT22;65970;50.476;4.840;2022-12-29T08:50:30;10.10;99.90
77039;DHT22;65970;50.476;4.840;2022-12-29T08:55:30;10.10;99.90
77039;DHT22;65970;50.476;4.840;2022-12-29T09:00:31;10.10;99.90
77039;DHT22;65970;50.476;4.840;2022-12-29T09:05:31;10.10;99.90
77039;DHT22;65970;50.476;4.840;2022-12-29T09:10:32;10.10;99.90
77039;DHT22;65970;50.476;4.840;2022-12-29T09:15:33;10.20;99.90
77039;DHT22;65970;50.476;4.840;2022-12-29T09:20:33;10.20;99.90
77039;DHT22;65970;50.476;4.840;2022-12-29T09:25:34;10.20;99.90
77039;DHT22;65970;50.476;4.840;2022-12-29T09:30:34;10.20;99.90
77039;DHT22;65970;50.476;4.840;2022-12-29T09:35:35;10.20;99.90
77039;DHT22;65970;50.476;4.840;2022-12-29T09:40:36;10.20;99.90
77039;DHT22;65970;50.476;4.840;2022-12-29T09:45:47;10.20;99.90
77039;DHT22;65970;50.476;4.840;2022-12-29T09:50:55;10.20;99.90
77039;DHT22;65970;50.476;4.840;2022-12-29T09:56:00;10.20;99.90
77039;DHT22;65970;50.476;4.840;2022-12-29T10:01:05;10.30;99.90
77039;DHT22;65970;50.476;4.840;2022-12-29T10:06:26;10.40;99.90
77039;DHT22;65970;50.476;4.840;2022-12-29T10:27:56;10.50;99.90
77039;DHT22;65970;50.476;4.840;2022-12-29T10:33:03;10.40;99.90
77039;DHT22;65970;50.476;4.840;2022-12-29T10:43:36;10.30;99.90
77039;DHT22;65970;50.476;4.840;2022-12-29T10:48:37;10.30;99.90
77039;DHT22;65970;50.476;4.840;2022-12-29T10:53:51;10.40;99.90
77039;DHT22;65970;50.476;4.840;2022-12-29T10:58:52;10.30;99.90
77039;DHT22;65970;50.476;4.840;2022-12-29T11:09:22;10.40;99.90
77039;DHT22;65970;50.476;4.840;2022-12-29T11:14:28;10.40;99.90
77039;DHT22;65970;50.476;4.840;2022-12-29T11:19:32;10.40;99.90
77039;DHT22;65970;50.476;4.840;2022-12-29T11:24:32;10.40;99.90
77039;DHT22;65970;50.476;4.840;2022-12-29T11:29:38;10.40;99.90
77039;DHT22;65970;50.476;4.840;2022-12-29T11:34:39;10.40;99.90
77039;DHT22;65970;50.476;4.840;2022-12-29T11:40:04;10.40;99.90
77039;DHT22;65970;50.476;4.840;2022-12-29T11:45:23;10.40;99.90
77039;DHT22;65970;50.476;4.840;2022-12-29T11:50:32;10.40;99.90
77039;DHT22;65970;50.476;4.840;2022-12-29T11:55:34;10.40;99.90
77039;DHT22;65970;50.476;4.840;2022-12-29T12:00:37;10.40;99.90
77039;DHT22;65970;50.476;4.840;2022-12-29T12:05:55;10.30;99.90
77039;DHT22;65970;50.476;4.840;2022-12-29T12:16:26;10.30;99.90
77039;DHT22;65970;50.476;4.840;2022-12-29T12:21:38;10.30;99.90
77039;DHT22;65970;50.476;4.840;2022-12-29T12:27:02;10.40;99.90
77039;DHT22;65970;50.476;4.840;2022-12-29T12:32:15;10.50;99.90
77039;DHT22;65970;50.476;4.840;2022-12-29T12:37:39;10.50;99.90
77039;DHT22;65970;50.476;4.840;2022-12-29T12:53:26;10.50;99.90
77039;DHT22;65970;50.476;4.840;2022-12-29T12:58:52;10.40;99.90
77039;DHT22;65970;50.476;4.840;2022-12-29T13:04:03;10.40;99.90
77039;DHT22;65970;50.476;4.840;2022-12-29T13:09:21;10.40;99.90
77039;DHT22;65970;50.476;4.840;2022-12-29T13:14:36;10.30;99.90
77039;DHT22;65970;50.476;4.840;2022-12-29T13:19:47;10.30;99.90
77039;DHT22;65970;50.476;4.840;2022-12-29T13:25:39;10.20;99.90
77039;DHT22;65970;50.476;4.840;2022-12-29T13:36:27;10.20;99.90
77039;DHT22;65970;50.476;4.840;2022-12-29T13:41:33;10.20;99.90
77039;DHT22;65970;50.476;4.840;2022-12-29T13:46:40;10.20;99.90
77039;DHT22;65970;50.476;4.840;2022-12-29T13:51:47;10.20;99.90
77039;DHT22;65970;50.476;4.840;2022-12-29T14:01:58;10.20;99.90
77039;DHT22;65970;50.476;4.840;2022-12-29T14:07:03;10.10;99.90
77039;DHT22;65970;50.476;4.840;2022-12-29T14:12:30;10.10;99.90
77039;DHT22;65970;50.476;4.840;2022-12-29T14:17:31;10.10;99.90
77039;DHT22;65970;50.476;4.840;2022-12-29T14:22:31;10.10;99.90
77039;DHT22;65970;50.476;4.840;2022-12-29T14:27:52;10.10;99.90
77039;DHT22;65970;50.476;4.840;2022-12-29T14:33:19;10.10;99.90
77039;DHT22;65970;50.476;4.840;2022-12-29T14:38:33;10.10;99.90
77039;DHT22;65970;50.476;4.840;2022-12-29T14:49:17;10.00;99.90
77039;DHT22;65970;50.476;4.840;2022-12-29T14:59:34;9.90;99.90
77039;DHT22;65970;50.476;4.840;2022-12-29T15:04:36;9.80;99.90
77039;DHT22;65970;50.476;4.840;2022-12-29T15:09:45;9.80;99.90
77039;DHT22;65970;50.476;4.840;2022-12-29T15:20:27;9.80;99.90
77039;DHT22;65970;50.476;4.840;2022-12-29T15:25:28;9.80;99.90
77039;DHT22;65970;50.476;4.840;2022-12-29T15:30:29;9.80;99.90
77039;DHT22;65970;50.476;4.840;2022-12-29T15:35:33;9.80;99.90
77039;DHT22;65970;50.476;4.840;2022-12-29T15:40:34;9.70;99.90
77039;DHT22;65970;50.476;4.840;2022-12-29T15:45:35;9.70;99.90
77039;DHT22;65970;50.476;4.840;2022-12-29T15:50:36;9.70;99.90
77039;DHT22;65970;50.476;4.840;2022-12-29T15:55:39;9.70;99.90
77039;DHT22;65970;50.476;4.840;2022-12-29T16:00:48;9.70;99.90
77039;DHT22;65970;50.476;4.840;2022-12-29T16:05:53;9.70;99.90
77039;DHT22;65970;50.476;4.840;2022-12-29T16:10:53;9.60;99.90
77039;DHT22;65970;50.476;4.840;2022-12-29T16:16:15;9.60;99.90
77039;DHT22;65970;50.476;4.840;2022-12-29T16:21:28;9.60;99.90
77039;DHT22;65970;50.476;4.840;2022-12-29T16:26:48;9.60;99.90
77039;DHT22;65970;50.476;4.840;2022-12-29T16:37:19;9.50;99.90
77039;DHT22;65970;50.476;4.840;2022-12-29T16:47:43;9.00;99.90
77039;DHT22;65970;50.476;4.840;2022-12-29T16:52:48;8.90;99.90
77039;DHT22;65970;50.476;4.840;2022-12-29T16:57:52;8.80;99.90
77039;DHT22;65970;50.476;4.840;2022-12-29T17:02:57;8.70;99.90
77039;DHT22;65970;50.476;4.840;2022-12-29T17:08:01;8.70;99.90
77039;DHT22;65970;50.476;4.840;2022-12-29T17:13:02;8.70;99.90
77039;DHT22;65970;50.476;4.840;2022-12-29T17:23:15;8.70;99.90
77039;DHT22;65970;50.476;4.840;2022-12-29T17:28:27;8.60;99.90
77039;DHT22;65970;50.476;4.840;2022-12-29T17:33:35;8.60;99.90
77039;DHT22;65970;50.476;4.840;2022-12-29T17:38:36;8.60;99.90
77039;DHT22;65970;50.476;4.840;2022-12-29T17:43:37;8.60;99.90
77039;DHT22;65970;50.476;4.840;2022-12-29T17:48:38;8.50;99.90
77039;DHT22;65970;50.476;4.840;2022-12-29T17:53:38;8.50;99.90
77039;DHT22;65970;50.476;4.840;2022-12-29T17:58:39;8.50;99.90
77039;DHT22;65970;50.476;4.840;2022-12-29T18:03:40;8.40;99.90
77039;DHT22;65970;50.476;4.840;2022-12-29T18:08:41;8.30;99.90
77039;DHT22;65970;50.476;4.840;2022-12-29T18:13:42;8.30;99.90
77039;DHT22;65970;50.476;4.840;2022-12-29T18:18:44;8.30;99.90
77039;DHT22;65970;50.476;4.840;2022-12-29T18:23:45;8.30;99.90
77039;DHT22;65970;50.476;4.840;2022-12-29T18:28:46;8.30;99.90
77039;DHT22;65970;50.476;4.840;2022-12-29T18:33:48;8.20;99.90
77039;DHT22;65970;50.476;4.840;2022-12-29T18:38:49;8.20;99.90
77039;DHT22;65970;50.476;4.840;2022-12-29T18:43:50;8.20;99.90
77039;DHT22;65970;50.476;4.840;2022-12-29T18:48:53;8.20;99.90
77039;DHT22;65970;50.476;4.840;2022-12-29T18:53:56;8.10;99.90
77039;DHT22;65970;50.476;4.840;2022-12-29T18:58:57;8.20;99.90
77039;DHT22;65970;50.476;4.840;2022-12-29T19:03:57;8.20;99.90
77039;DHT22;65970;50.476;4.840;2022-12-29T19:08:58;8.30;99.90
77039;DHT22;65970;50.476;4.840;2022-12-29T19:13:58;8.30;99.90
77039;DHT22;65970;50.476;4.840;2022-12-29T19:18:59;8.20;99.90
77039;DHT22;65970;50.476;4.840;2022-12-29T19:23:59;8.20;99.90
77039;DHT22;65970;50.476;4.840;2022-12-29T19:29:01;8.10;99.90
77039;DHT22;65970;50.476;4.840;2022-12-29T19:34:01;8.10;99.90
77039;DHT22;65970;50.476;4.840;2022-12-29T19:39:02;8.10;99.90
77039;DHT22;65970;50.476;4.840;2022-12-29T19:44:03;8.10;99.90
77039;DHT22;65970;50.476;4.840;2022-12-29T19:49:03;8.10;99.90
77039;DHT22;65970;50.476;4.840;2022-12-29T19:54:07;8.10;99.90
77039;DHT22;65970;50.476;4.840;2022-12-29T19:59:07;8.10;99.90
77039;DHT22;65970;50.476;4.840;2022-12-29T20:04:08;8.00;99.90
77039;DHT22;65970;50.476;4.840;2022-12-29T20:09:08;8.10;99.90
77039;DHT22;65970;50.476;4.840;2022-12-29T20:14:09;8.10;99.90
77039;DHT22;65970;50.476;4.840;2022-12-29T20:19:09;8.00;99.90
77039;DHT22;65970;50.476;4.840;2022-12-29T20:24:10;8.00;99.90
77039;DHT22;65970;50.476;4.840;2022-12-29T20:29:11;8.00;99.90
77039;DHT22;65970;50.476;4.840;2022-12-29T20:34:11;8.00;99.90
77039;DHT22;65970;50.476;4.840;2022-12-29T20:39:19;8.00;99.90
77039;DHT22;65970;50.476;4.840;2022-12-29T20:44:19;8.10;99.90
77039;DHT22;65970;50.476;4.840;2022-12-29T20:49:20;8.00;99.90
77039;DHT22;65970;50.476;4.840;2022-12-29T20:54:21;8.00;99.90
77039;DHT22;65970;50.476;4.840;2022-12-29T20:59:22;8.00;99.90
77039;DHT22;65970;50.476;4.840;2022-12-29T21:04:22;7.90;99.90
77039;DHT22;65970;50.476;4.840;2022-12-29T21:09:23;7.90;99.90
77039;DHT22;65970;50.476;4.840;2022-12-29T21:14:24;7.90;99.90
77039;DHT22;65970;50.476;4.840;2022-12-29T21:19:24;7.90;99.90
77039;DHT22;65970;50.476;4.840;2022-12-29T21:24:25;7.80;99.90
77039;DHT22;65970;50.476;4.840;2022-12-29T21:29:25;7.80;99.90
77039;DHT22;65970;50.476;4.840;2022-12-29T21:34:26;7.80;99.90
77039;DHT22;65970;50.476;4.840;2022-12-29T21:39:26;7.80;99.90
77039;DHT22;65970;50.476;4.840;2022-12-29T21:44:27;7.80;99.90
77039;DHT22;65970;50.476;4.840;2022-12-29T21:49:27;7.80;99.90
77039;DHT22;65970;50.476;4.840;2022-12-29T21:54:29;7.70;99.90
77039;DHT22;65970;50.476;4.840;2022-12-29T21:59:29;7.70;99.90
77039;DHT22;65970;50.476;4.840;2022-12-29T22:04:30;7.70;99.90
77039;DHT22;65970;50.476;4.840;2022-12-29T22:09:31;7.80;99.90
77039;DHT22;65970;50.476;4.840;2022-12-29T22:14:32;7.70;99.90
77039;DHT22;65970;50.476;4.840;2022-12-29T22:19:33;7.70;99.90
77039;DHT22;65970;50.476;4.840;2022-12-29T22:24:33;7.70;99.90
77039;DHT22;65970;50.476;4.840;2022-12-29T22:29:34;7.60;99.90
77039;DHT22;65970;50.476;4.840;2022-12-29T22:34:34;7.60;99.90
77039;DHT22;65970;50.476;4.840;2022-12-29T22:39:35;7.70;99.90
77039;DHT22;65970;50.476;4.840;2022-12-29T22:44:35;7.60;99.90
77039;DHT22;65970;50.476;4.840;2022-12-29T22:49:36;7.60;99.90
77039;DHT22;65970;50.476;4.840;2022-12-29T22:54:37;7.60;99.90
77039;DHT22;65970;50.476;4.840;2022-12-29T22:59:37;7.60;99.90
77039;DHT22;65970;50.476;4.840;2022-12-29T23:04:38;7.60;99.90
77039;DHT22;65970;50.476;4.840;2022-12-29T23:09:38;7.50;99.90
77039;DHT22;65970;50.476;4.840;2022-12-29T23:14:39;7.50;99.90
77039;DHT22;65970;50.476;4.840;2022-12-29T23:19:39;7.50;99.90
77039;DHT22;65970;50.476;4.840;2022-12-29T23:24:40;7.50;99.90
77039;DHT22;65970;50.476;4.840;2022-12-29T23:29:40;7.50;99.90
77039;DHT22;65970;50.476;4.840;2022-12-29T23:34:41;7.50;99.90
77039;DHT22;65970;50.476;4.840;2022-12-29T23:39:42;7.50;99.90
77039;DHT22;65970;50.476;4.840;2022-12-29T23:44:42;7.40;99.90
77039;DHT22;65970;50.476;4.840;2022-12-29T23:49:43;7.40;99.90
77039;DHT22;65970;50.476;4.840;2022-12-29T23:54:43;7.40;99.90
77039;DHT22;65970;50.476;4.840;2022-12-29T23:59:44;7.40;99.90
